Latest Weather Observations for Camooweal

IDD60801

Issued at 4:35 pm CST Wednesday 3 September 2014 (issued every 30 minutes, with the page automatically refreshed every 10 minutes)

About weather observations | Map of weather stations | Latest weather observations for NT | Other Formats
Station Details ID: 037010 Name: CAMOOWEAL TOWNSHIP Lat: -19.92 Lon: 138.12 Height: 231.2 m
Data from the previous 72 hours. | See also: Recent months at Camooweal
Date/Time
CST
Temp
°C
App
Temp
°C
Dew
Point
Rel
Hum
%
Delta-T
°C
Wind Press
QNH
hPa
Press
MSL
hPa
Rain
since 9 am
mm
Dir
 
Spd
km/h
Gust
km/h
Spd
kts
Gust
kts
03/04:30pm 26.7 19.9 -8.8 9 14.2 S 20 26 11 14 1016.4 1015.3 0.0
03/04:00pm 26.8 19.9 -10.2 8 14.5 S 20 28 11 15 1016.3 1015.2 0.0
03/03:30pm 26.8 20.1 -10.2 8 14.5 SSE 19 28 10 15 1016.6 1015.5 0.0
03/03:00pm 26.4 19.7 -7.6 10 13.9 SSE 20 30 11 16 1016.9 1015.8 0.0
03/02:30pm 26.8 20.2 -7.3 10 14.1 SSE 20 30 11 16 1017.4 1016.4 0.0
03/02:00pm 25.8 19.3 -8.1 10 13.7 SSE 19 28 10 15 1017.8 1016.8 0.0
03/01:30pm 25.3 18.6 -8.5 10 13.4 SSE 20 30 11 16 1018.2 1017.2 0.0
03/01:00pm 24.8 18.7 -7.6 11 13.1 SSE 17 28 9 15 1018.7 1017.7 0.0
03/12:30pm 24.2 17.7 -5.9 13 12.4 S 20 33 11 18 1019.2 1018.2 0.0
03/12:00pm 23.2 16.7 -5.7 14 11.9 SSE 20 28 11 15 1019.9 1018.8 0.0
03/11:30am 23.0 16.6 -5.0 15 11.6 SSE 20 32 11 17 1020.3 1019.2 0.0
03/11:00am 21.9 15.2 -4.2 17 10.9 SE 22 33 12 18 1020.8 1019.7 0.0
03/10:30am 20.9 13.8 -4.3 18 10.4 SSE 24 35 13 19 1021.1 1020.0 0.0
03/10:00am 20.6 13.7 -2.5 21 9.9 SE 24 33 13 18 1021.5 1020.5 0.0
03/09:30am 18.9 11.5 -3.3 22 9.2 SSE 26 33 14 18 1021.8 1020.8 0.0
03/09:00am 18.1 11.1 -3.3 23 8.8 SE 24 30 13 16 1021.9 1020.9 0.0
03/08:30am 16.7 10.1 -2.9 26 8.0 SE 22 32 12 17 1021.8 1020.8 0.0
03/08:00am 14.8 8.2 -3.0 29 7.1 SSE 22 28 12 15 1021.8 1020.8 0.0
03/07:30am 13.3 8.1 -3.0 32 6.4 SSE 15 20 8 11 1021.6 1020.6 0.0
03/07:00am 11.6 6.3 -3.7 34 5.8 S 15 19 8 10 1021.2 1020.2 0.0
03/06:30am 11.3 6.0 -4.0 34 5.7 S 15 19 8 10 1020.8 1019.7 0.0
03/06:00am 11.5 6.1 -4.2 33 5.9 S 15 19 8 10 1020.8 1019.7 0.0
03/05:30am 12.3 7.0 -3.5 33 6.1 S 15 20 8 11 1020.4 1019.3 0.0
03/05:00am 12.9 7.6 -3.4 32 6.3 S 15 19 8 10 1020.1 1019.0 0.0
03/04:30am 13.5 7.9 -3.3 31 6.6 SSE 17 22 9 12 1019.8 1018.7 0.0
03/04:00am 13.8 8.2 -3.0 31 6.6 SSE 17 20 9 11 1019.6 1018.6 0.0
03/03:30am 14.2 9.0 -2.7 31 6.7 SSE 15 19 8 10 1019.6 1018.6 0.0
03/03:00am 14.8 9.6 -2.6 30 7.0 SSE 15 22 8 12 1019.6 1018.6 0.0
03/02:30am 15.4 9.5 -2.5 29 7.3 SSE 19 26 10 14 1020.1 1019.0 0.0
03/02:00am 15.7 9.7 -2.7 28 7.5 SSE 19 24 10 13 1020.2 1019.1 0.0
03/01:30am 16.2 10.7 -2.3 28 7.6 SSE 17 22 9 12 1020.3 1019.2 0.0
03/01:00am 16.7 10.8 -2.4 27 7.9 SSE 19 26 10 14 1020.5 1019.4 0.0
03/12:30am 17.5 11.5 -1.7 27 8.1 SSE 20 28 11 15 1020.7 1019.6 0.0
03/12:00am 18.0 12.0 -1.8 26 8.4 SSE 20 30 11 16 1020.7 1019.6 0.0
 
Date/Time
CST
Temp
°C
App
Temp
°C
Dew
Point
Rel
Hum
%
Delta-T
°C
Wind Press
QNH
hPa
Press
MSL
hPa
Rain
since 9 am
mm
Dir
 
Spd
km/h
Gust
km/h
Spd
kts
Gust
kts
02/11:30pm 18.8 12.2 -0.6 27 8.5 SSE 24 37 13 20 1020.7 1019.6 0.0
02/11:00pm 19.1 12.5 -0.3 27 8.6 SSE 24 32 13 17 1020.6 1019.5 0.0
02/10:30pm 19.8 12.6 0.8 28 8.6 SSE 28 37 15 20 1020.4 1019.3 0.0
02/10:00pm 20.1 14.0 2.5 31 8.3 S 24 33 13 18 1020.4 1019.3 0.0
02/09:30pm 20.5 14.8 2.8 31 8.4 S 22 32 12 17 1020.4 1019.3 0.0
02/09:00pm 21.4 15.7 3.1 30 8.8 S 22 32 12 17 1020.2 1019.1 0.0
02/08:30pm 21.9 16.2 3.1 29 9.0 S 22 33 12 18 1020.0 1018.9 0.0
02/08:00pm 22.6 16.6 3.2 28 9.4 S 24 33 13 18 1019.8 1018.7 0.0
02/07:30pm 23.3 16.9 3.3 27 9.8 S 26 35 14 19 1019.2 1018.2 0.0
02/07:00pm 24.2 17.9 3.5 26 10.2 S 26 41 14 22 1018.8 1017.8 0.0
02/06:30pm 25.1 18.7 3.1 24 10.8 S 26 39 14 21 1018.5 1017.5 0.0
02/06:00pm 25.9 19.9 3.2 23 11.3 S 24 37 13 20 1018.2 1017.2 0.0
02/05:30pm 27.0 20.1 2.8 21 12.0 S 28 41 15 22 1017.6 1016.6 0.0
02/05:00pm 28.2 21.8 3.1 20 12.6 SSE 26 35 14 19 1017.3 1016.3 0.0
02/04:30pm 28.6 22.0 2.0 18 13.1 SE 26 37 14 20 1017.3 1016.3 0.0
02/04:00pm 29.2 22.3 2.5 18 13.4 SSE 28 39 15 21 1017.1 1016.0 0.0
02/03:30pm 29.2 22.3 2.5 18 13.4 SSE 28 35 15 19 1017.0 1015.9 0.0
02/03:00pm 29.4 22.5 2.6 18 13.5 SSE 28 39 15 21 1017.1 1016.0 0.0
02/02:30pm 29.1 21.3 1.6 17 13.5 SSE 32 44 17 24 1017.5 1016.5 0.0
02/02:00pm 29.5 21.7 1.9 17 13.7 SSE 32 41 17 22 1017.8 1016.8 0.0
02/01:37pm 29.0 21.7 2.3 18 13.3 SSE 30 48 16 26 1018.2 1017.2 0.0
02/01:30pm 28.4 20.6 2.6 19 12.9 SSE 33 44 18 24 1018.3 1017.3 0.0
02/01:00pm 29.3 22.4 2.5 18 13.4 SSE 28 35 15 19 1018.7 1017.7 0.0
02/12:30pm 28.1 20.5 3.0 20 12.6 SSE 32 46 17 25 1019.1 1018.1 0.0
02/12:00pm 27.3 20.4 2.4 20 12.3 SSE 28 37 15 20 1019.3 1018.3 0.0
02/11:30am 26.1 18.5 2.7 22 11.5 SSE 32 46 17 25 1019.6 1018.6 0.0
02/11:22am 26.8 20.0 3.3 22 11.8 SSE 28 46 15 25 1019.8 1018.7 0.0
02/11:00am 25.7 18.0 2.4 22 11.4 SSE 32 43 17 23 1020.1 1019.0 0.0
02/10:30am 24.7 17.8 2.8 24 10.7 SSE 28 39 15 21 1020.5 1019.4 0.0
02/10:00am 23.9 16.3 2.7 25 10.3 SE 32 41 17 22 1021.0 1019.9 0.0
02/09:30am 23.1 15.3 2.6 26 9.8 SSE 33 46 18 25 1021.2 1020.2 0.0
02/09:03am 21.7 13.7 1.9 27 9.3 SSE 33 52 18 28 1021.0 1019.9 0.0
02/09:00am 21.6 13.6 1.8 27 9.3 SSE 33 46 18 25 1021.0 1019.9 0.0
02/08:30am 21.1 12.7 1.4 27 9.1 SSE 35 44 19 24 1020.8 1019.7 0.0
02/08:00am 19.6 12.1 -1.5 24 9.1 SSE 28 43 15 23 1020.4 1019.3 0.0
02/07:30am 17.9 10.4 -4.1 22 8.8 SSE 26 39 14 21 1020.0 1018.9 0.0
02/07:00am 16.8 9.6 -5.6 21 8.7 S 24 32 13 17 1019.4 1018.4 0.0
02/06:30am 15.4 9.7 -7.4 20 8.3 S 15 19 8 10 1019.0 1018.0 0.0
02/06:00am 16.4 12.3 -6.6 20 8.7 S 7 13 4 7 1018.4 1017.4 0.0
02/05:30am 16.8 11.5 -6.9 19 8.9 S 13 17 7 9 1017.8 1016.8 0.0
02/05:00am 13.5 10.7 -3.7 30 6.7 ENE 2 9 1 5 1016.9 1015.8 0.0
02/04:30am 15.7 13.2 -3.7 26 7.7 CALM 0 6 0 3 1016.4 1015.3 0.0
02/04:00am 17.0 13.0 -6.1 20 8.8 ENE 7 9 4 5 1016.4 1015.3 0.0
02/03:30am 17.9 13.5 -6.0 19 9.3 ENE 9 9 5 5 1016.2 1015.1 0.0
02/03:00am 17.3 13.0 -5.2 21 8.8 E 9 11 5 6 1016.2 1015.1 0.0
02/02:30am 16.0 11.5 -6.9 20 8.5 E 9 11 5 6 1016.4 1015.3 0.0
02/02:00am 17.1 12.7 -5.4 21 8.8 E 9 11 5 6 1016.7 1015.6 0.0
02/01:30am 17.8 13.4 -6.1 19 9.2 E 9 15 5 8 1017.0 1015.9 0.0
02/01:00am 15.8 11.8 -5.3 23 8.1 SSE 7 9 4 5 1017.2 1016.1 0.0
02/12:30am 16.2 13.6 -4.9 23 8.2 CALM 0 0 0 0 1017.4 1016.4 0.0
02/12:00am 17.0 14.3 -5.5 21 8.7 CALM 0 0 0 0 1017.5 1016.5 0.0
 
Date/Time
CST
Temp
°C
App
Temp
°C
Dew
Point
Rel
Hum
%
Delta-T
°C
Wind Press
QNH
hPa
Press
MSL
hPa
Rain
since 9 am
mm
Dir
 
Spd
km/h
Gust
km/h
Spd
kts
Gust
kts
01/11:30pm 17.5 13.7 -5.7 20 9.0 SW 6 7 3 4 1017.5 1016.5 0.0
01/11:00pm 18.1 14.4 -4.5 21 9.1 SW 6 9 3 5 1017.5 1016.5 0.0
01/10:30pm 18.4 14.8 -2.0 25 8.6 S 7 11 4 6 1017.3 1016.3 0.0
01/10:00pm 18.3 14.6 -4.4 21 9.1 SSE 6 7 3 4 1017.3 1016.3 0.0
01/09:30pm 21.5 18.3 -3.8 18 10.6 ESE 4 7 2 4 1017.0 1015.9 0.0
01/09:00pm 21.2 17.9 -4.0 18 10.5 S 4 6 2 3 1016.7 1015.6 0.0
01/08:30pm 22.1 18.3 -4.1 17 11.0 SW 7 11 4 6 1016.6 1015.5 0.0
01/08:00pm 23.3 19.9 -2.3 18 11.3 S 6 7 3 4 1016.2 1015.1 0.0
01/07:30pm 24.2 20.6 -2.4 17 11.7 S 7 9 4 5 1015.6 1014.5 0.0
01/07:00pm 24.7 22.1 -2.0 17 11.9 SSW 2 6 1 3 1015.2 1014.1 0.0
01/06:30pm 26.3 22.4 -4.3 13 13.3 SW 7 7 4 4 1014.9 1013.9 0.0
01/06:00pm 28.9 24.8 -3.3 12 14.6 SSW 9 13 5 7 1014.7 1013.7 0.0
01/05:30pm 30.7 26.6 -3.1 11 15.5 SSW 9 11 5 6 1014.5 1013.5 0.0
01/05:00pm 31.4 27.4 -2.6 11 15.9 SW 9 19 5 10 1014.2 1013.2 0.0
01/04:30pm 31.7 27.3 -2.3 11 16.0 SSW 11 20 6 11 1014.1 1013.1 0.0
01/04:00pm 31.9 28.1 -3.5 10 16.3 SW 7 13 4 7 1014.0 1013.0 0.0
01/03:30pm 32.2 27.1 -2.0 11 16.2 SW 15 20 8 11 1014.3 1013.3 0.0
01/03:00pm 31.4 26.6 -2.6 11 15.9 SSW 13 19 7 10 1014.5 1013.5 0.0
01/02:30pm 31.7 26.6 -2.3 11 16.0 WSW 15 24 8 13 1014.6 1013.6 0.0
01/02:00pm 31.3 26.9 -2.6 11 15.8 W 11 20 6 11 1015.0 1014.0 0.0
01/01:30pm 30.8 26.5 -1.9 12 15.3 W 11 19 6 10 1015.5 1014.4 0.0
01/01:00pm 30.5 26.1 -2.1 12 15.2 S 11 26 6 14 1015.8 1014.7 0.0
01/12:30pm 29.9 26.2 -2.6 12 15.0 N 7 22 4 12 1016.4 1015.3 0.0
01/12:00pm 29.7 26.2 -2.7 12 14.9 SSW 6 9 3 5 1017.0 1015.9 0.0
01/11:30am 29.5 25.8 -2.9 12 14.8 WSW 7 13 4 7 1017.5 1016.5 0.0
01/11:00am 29.1 25.7 -2.1 13 14.4 N 6 9 3 5 1018.0 1017.0 0.0
01/10:30am 28.7 24.6 -0.5 15 13.8 N 11 15 6 8 1018.4 1017.4 0.0
01/10:00am 27.9 23.4 -0.2 16 13.3 N 13 20 7 11 1018.7 1017.7 0.0
01/09:30am 26.4 22.6 -0.6 17 12.5 NE 9 15 5 8 1018.7 1017.7 0.0
01/09:00am 25.9 22.6 -0.2 18 12.2 ENE 7 11 4 6 1018.5 1017.9 0.0
01/08:30am 21.9 19.7 -1.4 21 10.3 CALM 0 0 0 0 1018.4 1017.8 0.0
01/08:00am 17.6 15.2 -3.2 24 8.5 CALM 0 0 0 0 1018.3 1017.7 0.0
01/07:30am 14.6 11.3 -4.7 26 7.4 S 4 7 2 4 1018.1 1017.5 0.0
01/07:00am 12.3 8.5 -3.9 32 6.2 SSW 7 7 4 4 1017.8 1017.1 0.0
01/06:30am 12.5 8.9 -1.8 37 5.7 SSW 7 7 4 4 1017.3 1016.6 0.0
01/06:00am 13.2 9.7 -3.1 32 6.4 SSW 6 7 3 4 1017.0 1016.3 0.0
01/05:30am 13.7 10.3 -1.9 34 6.3 SSW 6 7 3 4 1016.4 1015.7 0.0
01/05:00am 12.5 10.6 0.3 43 5.1 CALM 0 0 0 0 1016.1 1015.4 0.0
01/04:30am 16.2 12.7 -2.8 27 7.7 ENE 6 7 3 4 1015.7 1015.0 0.0
01/04:00am 16.7 13.1 -2.4 27 7.9 ENE 7 9 4 5 1015.7 1015.0 0.0
01/03:30am 16.6 12.4 -3.5 25 8.1 E 9 11 5 6 1015.4 1014.7 0.0
01/03:00am 17.2 12.7 -3.0 25 8.3 E 11 13 6 7 1015.2 1014.5 0.0
01/02:30am 14.6 10.9 -2.8 30 7.0 ESE 7 9 4 5 1015.4 1014.7 0.0
01/02:00am 15.7 11.6 -3.2 27 7.6 E 9 13 5 7 1015.5 1014.8 0.0
01/01:30am 17.1 13.4 -3.1 25 8.2 ENE 7 9 4 5 1015.7 1015.0 0.0
01/01:00am 17.8 14.4 -1.9 26 8.3 E 6 9 3 5 1015.6 1014.9 0.0
01/12:30am 17.0 13.4 -3.7 24 8.3 E 6 9 3 5 1015.6 1014.9 0.0
01/12:00am 18.5 14.5 -1.9 25 8.7 E 9 9 5 5 1015.6 1014.9 0.0
 
Date/Time
CST
Temp
°C
App
Temp
°C
Dew
Point
Rel
Hum
%
Delta-T
°C
Wind Press
QNH
hPa
Press
MSL
hPa
Rain
since 9 am
mm
Dir
 
Spd
km/h
Gust
km/h
Spd
kts
Gust
kts
31/11:30pm 17.6 13.6 -2.1 26 8.3 S 9 13 5 7 1015.7 1015.0 0.0
31/11:00pm 17.6 14.1 -1.6 27 8.1 SSE 7 9 4 5 1015.8 1015.1 0.0
31/10:30pm 20.6 16.2 -2.5 21 9.9 E 11 13 6 7 1015.7 1015.0 0.0
31/10:00pm 20.9 16.9 -2.2 21 10.0 ESE 9 11 5 6 1015.8 1015.1 0.0
31/09:30pm 20.5 17.1 -0.7 24 9.4 ESE 7 7 4 4 1015.8 1015.1 0.0
31/09:00pm 21.3 17.7 -1.9 21 10.1 ESE 7 9 4 5 1015.8 1015.1 0.0
31/08:30pm 21.2 18.2 -2.0 21 10.1 SSE 4 9 2 5 1015.6 1014.9 0.0
31/08:00pm 23.0 19.4 -1.8 19 11.0 ESE 7 9 4 5 1015.2 1014.5 0.0
31/07:30pm 23.5 19.0 -2.9 17 11.5 SE 11 11 6 6 1014.9 1014.3 0.0
31/07:00pm 24.5 20.0 -2.9 16 12.0 SSE 11 11 6 6 1014.5 1013.9 0.0
31/06:30pm 25.7 21.3 -2.8 15 12.7 SE 11 13 6 7 1014.2 1013.6 0.0
31/06:00pm 27.7 23.6 -3.2 13 13.9 SE 9 11 5 6 1014.0 1013.3 0.0
31/05:30pm 29.3 25.8 -3.0 12 14.7 E 6 9 3 5 1014.0 1013.3 0.0
31/05:00pm 29.9 25.1 -2.6 12 15.0 S 13 20 7 11 1013.9 1013.2 0.0
31/04:30pm 30.5 27.1 -2.1 12 15.2 S 6 17 3 9 1013.5 1012.8 0.0

Other Formats:

Comma delimited format used in spreadsheet applications
http://www.bom.gov.au/fwo/IDD60801/IDD60801.94255.axf

JavaScript Object Notation format (JSON) in row-major order
http://www.bom.gov.au/fwo/IDD60801/IDD60801.94255.json